• Join FlightAware (Why Join?)
  • Login
  • US Flag 
05:32PM EDT


 

Airport Tracker/Info


-or-


 

Live Flight TrackerFlight Track Log ✈ N6045S ✈ 04-Jul-2013 ✈ KDXR - KTTN

Flight Track Log - Related Links

Times and Time Zones

All times are in EDT time to prevent confusion due to time zone crossing. See the N6045S flight status page for this flight to view local times or setup timezone preferences in your user account.

Time Position Orientation Groundspeed Altitude Reporting Facility
EDT Latitude Longitude Course Direction KTS MPH feet Rate Location/Type
01:38PM 41.3333 -73.5333 201° Southwest 138 159 2,200  Level New York TRACON
01:39PM 41.3000 -73.5500 201° Southwest 155 178 3,500 1,380 Climbing New York TRACON
01:40PM 41.2833 -73.6000 246° West 155 178 5,000 1,500 Climbing New York TRACON
01:41PM 41.2833 -73.6667 270° West 144 166 6,600 960 Climbing New York TRACON
01:42PM 41.2667 -73.7167 246° West 178 205 7,000 180 Climbing New York TRACON
01:43PM 41.2500 -73.7833 252° West 212 244 7,000  Level New York TRACON
01:44PM 41.2333 -73.8833 258° West 223 257 7,000  Level New York TRACON
01:45PM 41.2167 -73.9500 252° West 224 258 7,000  Level New York TRACON
01:46PM 41.2000 -74.0167 252° West 226 260 7,000 420 Level New York TRACON
01:47PM 41.1667 -74.1000 242° Southwest 199 229 8,000 420 Climbing New York TRACON
01:48PM 41.1500 -74.1833 255° West 212 244 8,000  Level New York TRACON
01:49PM 41.1333 -74.2333 246° West 217 250 8,100  Climbing New York TRACON
01:50PM 41.1167 -74.3167 255° West 221 254 8,100  Level New York TRACON
01:51PM 41.1000 -74.4000 255° West 225 259 8,100  Level New York TRACON
01:52PM 41.0833 -74.4833 255° West 226 260 8,100 -60 Level New York TRACON
01:53PM 41.0500 -74.5500 236° Southwest 227 261 8,000  Descending New York TRACON
01:54PM 40.9833 -74.5667 191° South 230 265 8,100  Climbing New York TRACON
01:55PM 40.9333 -74.6000 207° Southwest 230 265 8,100 -60 Level New York TRACON
01:56PM 40.8667 -74.6167 191° South 230 265 8,000  Descending New York TRACON
01:57PM 40.8167 -74.6500 207° Southwest 223 257 8,100 -300 Climbing New York TRACON
01:58PM 40.7667 -74.7000 217° Southwest 228 262 7,400 -1,260 Descending New York TRACON
02:00PM 40.6667 -74.7833 212° Southwest 224 258 4,600 -1,200 Descending Philadelphia TRACON
02:01PM 40.6000 -74.7833 180° South 229 264 4,100 -300 Descending Philadelphia TRACON
02:02PM 40.5500 -74.8000 194° South 221 254 4,100 -300 Level Philadelphia TRACON
02:03PM 40.4833 -74.8000 180° South 219 252 3,500 -840 Descending Philadelphia TRACON
02:04PM 40.4167 -74.8000 180° South 213 245 2,400 -1,020 Descending Philadelphia TRACON
02:05PM 40.3667 -74.8000 180° South 192 221 1,600 -660 Descending Philadelphia TRACON
02:06PM 40.3333 -74.7667 143° Southeast 145 167 1,200 -480 Descending Philadelphia TRACON
02:07PM 40.3000 -74.7833 201° Southwest 117 135 700 -480 Descending Philadelphia TRACON
02:09PM 40.2767 -74.8135 78° East  Level Estimated
02:16PM 40.2767 -74.8135 78° East  Level Estimated